| time (UTC) | temp C | wind direction | speed KPH | gust KPH | rain 1hr cm | rain 24hr cm | rain mn cm | humidity % | barometer mb |
| 20260507164354 | 30 | 122 | 1.6 | 3.2 | 0.00 | 0.00 | 0.00 | 11 | 1015.9 |
| 20260507163852 | 30 | 50 | 3.2 | 3.2 | 0.00 | 0.00 | 0.00 | 11 | 1015.9 |
| 20260507163349 | 29 | 101 | 4.8 | 4.8 | 0.00 | 0.00 | 0.00 | 11 | 1016.1 |
| 20260507162845 | 29 | 96 | 6.4 | 8.0 | 0.00 | 0.00 | 0.00 | 11 | 1016.0 |
| 20260507162341 | 29 | 107 | 6.4 | 8.0 | 0.00 | 0.00 | 0.00 | 11 | 1016.2 |
| 20260507161838 | 29 | 122 | 4.8 | 4.8 | 0.00 | 0.00 | 0.00 | 11 | 1016.0 |
| 20260507161334 | 28 | 114 | 4.8 | 4.8 | 0.00 | 0.00 | 0.00 | 11 | 1016.1 |
| 20260507160831 | 28 | 117 | 1.6 | 3.2 | 0.00 | 0.00 | 0.00 | 11 | 1016.3 |
| 20260507160327 | 28 | 53 | 6.4 | 9.7 | 0.00 | 0.00 | 0.00 | 11 | 1016.3 |
| 20260507155823 | 28 | 60 | 6.4 | 8.0 | 0.00 | 0.00 | 0.00 | 11 | 1016.3 |
| 20260507155320 | 28 | 67 | 6.4 | 8.0 | 0.00 | 0.00 | 0.00 | 11 | 1016.4 |
| 20260507154816 | 28 | 228 | 3.2 | 3.2 | 0.00 | 0.00 | 0.00 | 12 | 1016.2 |
| 20260507154314 | 27 | 310 | 3.2 | 4.8 | 0.00 | 0.00 | 0.00 | 12 | 1016.3 |
| 20260507153810 | 27 | 111 | 3.2 | 3.2 | 0.00 | 0.00 | 0.00 | 12 | 1016.5 |
| 20260507153307 | 27 | 164 | 3.2 | 3.2 | 0.00 | 0.00 | 0.00 | 12 | 1016.2 |
| 20260507152803 | 27 | 162 | 3.2 | 3.2 | 0.00 | 0.00 | 0.00 | 13 | 1016.4 |
| 20260507152300 | 26 | 131 | 4.8 | 4.8 | 0.00 | 0.00 | 0.00 | 13 | 1016.4 |
| 20260507151755 | 25 | 229 | 1.6 | 3.2 | 0.00 | 0.00 | 0.00 | 19 | 1016.4 |
| 20260507151252 | 25 | 232 | 0.0 | 1.6 | 0.00 | 0.00 | 0.00 | 20 | 1016.5 |
| 20260507150749 | 24 | 240 | 0.0 | 0.0 | 0.00 | 0.00 | 0.00 | 20 | 1016.5 |
| 20260507150246 | 23 | 241 | 0.0 | 0.0 | 0.00 | 0.00 | 0.00 | 23 | 1016.4 |
| 20260507145742 | 23 | 238 | 0.0 | 1.6 | 0.00 | 0.00 | 0.00 | 22 | 1016.5 |
| 20260507145238 | 23 | 236 | 0.0 | 0.0 | 0.00 | 0.00 | 0.00 | 24 | 1016.5 |
| 20260507144735 | 22 | 239 | 0.0 | 0.0 | 0.00 | 0.00 | 0.00 | 24 | 1016.5 |
| 20260507144233 | 22 | 238 | 0.0 | 0.0 | 0.00 | 0.00 | 0.00 | 25 | 1016.5 |
| 20260507143729 | 21 | 194 | 1.6 | 1.6 | 0.00 | 0.00 | 0.00 | 25 | 1016.4 |
| 20260507143227 | 21 | 237 | 0.0 | 0.0 | 0.00 | 0.00 | 0.00 | 27 | 1016.5 |
| 20260507142723 | 20 | 238 | 0.0 | 0.0 | 0.00 | 0.00 | 0.00 | 28 | 1016.5 |
| 20260507142220 | 20 | 240 | 0.0 | 0.0 | 0.00 | 0.00 | 0.00 | 29 | 1016.5 |
| 20260507141716 | 19 | 239 | 0.0 | 0.0 | 0.00 | 0.00 | 0.00 | 29 | 1016.3 |
| 20260507141213 | 18 | 239 | 0.0 | 0.0 | 0.00 | 0.00 | 0.00 | 30 | 1016.4 |
| 20260507140709 | 18 | 240 | 0.0 | 0.0 | 0.00 | 0.00 | 0.00 | 30 | 1016.3 |
| 20260507140207 | 18 | 237 | 0.0 | 0.0 | 0.00 | 0.00 | 0.00 | 31 | 1016.6 |
| 20260507135703 | 18 | 235 | 0.0 | 0.0 | 0.00 | 0.00 | 0.00 | 31 | 1016.3 |
| 20260507135201 | 17 | 239 | 0.0 | 0.0 | 0.00 | 0.00 | 0.00 | 31 | 1016.3 |
| 20260507134657 | 17 | 239 | 0.0 | 0.0 | 0.00 | 0.00 | 0.00 | 32 | 1016.3 |
| 20260507134154 | 17 | 239 | 0.0 | 0.0 | 0.00 | 0.00 | 0.00 | 32 | 1016.3 |
| 20260507133649 | 17 | 235 | 0.0 | 0.0 | 0.00 | 0.00 | 0.00 | 32 | 1016.2 |
| 20260507133147 | 16 | 239 | 0.0 | 0.0 | 0.00 | 0.00 | 0.00 | 33 | 1016.2 |
| 20260507132644 | 16 | 239 | 0.0 | 0.0 | 0.00 | 0.00 | 0.00 | 33 | 1016.3 |
| 20260507132140 | 16 | 238 | 0.0 | 0.0 | 0.00 | 0.00 | 0.00 | 33 | 1016.2 |
| 20260507131637 | 16 | 242 | 0.0 | 0.0 | 0.00 | 0.00 | 0.00 | 33 | 1016.1 |
| 20260507131134 | 16 | 244 | 0.0 | 0.0 | 0.00 | 0.00 | 0.00 | 32 | 1016.0 |
| 20260507130631 | 16 | 224 | 0.0 | 0.0 | 0.00 | 0.00 | 0.00 | 33 | 1015.9 |
| 20260507130129 | 16 | 248 | 0.0 | 0.0 | 0.00 | 0.00 | 0.00 | 33 | 1015.9 |
| 20260507125628 | 16 | 258 | 0.0 | 0.0 | 0.00 | 0.00 | 0.00 | 33 | 1016.1 |
| 20260507125125 | 15 | 278 | 1.6 | 1.6 | 0.00 | 0.00 | 0.00 | 33 | 1015.9 |
| 20260507124620 | 15 | 256 | 0.0 | 1.6 | 0.00 | 0.00 | 0.00 | 33 | 1015.9 |
| 20260507124119 | 16 | 259 | 0.0 | 0.0 | 0.00 | 0.00 | 0.00 | 32 | 1015.9 |
| 20260507123616 | 16 | 316 | 3.2 | 4.8 | 0.00 | 0.00 | 0.00 | 32 | 1015.8 |
| 20260507123113 | 15 | 290 | 0.0 | 0.0 | 0.00 | 0.00 | 0.00 | 33 | 1015.9 |
| 20260507122608 | 15 | 265 | 0.0 | 1.6 | 0.00 | 0.00 | 0.00 | 33 | 1015.7 |
| 20260507122104 | 15 | 264 | 0.0 | 0.0 | 0.00 | 0.00 | 0.00 | 33 | 1016.0 |
| 20260507121601 | 15 | 251 | 0.0 | 0.0 | 0.00 | 0.00 | 0.00 | 34 | 1015.8 |
| 20260507121057 | 15 | 242 | 0.0 | 0.0 | 0.00 | 0.00 | 0.00 | 33 | 1015.7 |
| 20260507120553 | 15 | 247 | 0.0 | 0.0 | 0.00 | 0.00 | 0.00 | 33 | 1015.6 |
| 20260507120050 | 15 | 242 | 0.0 | 0.0 | 0.00 | 0.00 | 0.00 | 33 | 1016.0 |
| 20260507115546 | 15 | 243 | 0.0 | 0.0 | 0.00 | 0.00 | 0.00 | 33 | 1016.1 |
| 20260507115042 | 15 | 254 | 0.0 | 0.0 | 0.00 | 0.00 | 0.00 | 33 | 1016.1 |
| 20260507114538 | 15 | 248 | 0.0 | 0.0 | 0.00 | 0.00 | 0.00 | 33 | 1016.2 |
| 20260507114035 | 15 | 235 | 0.0 | 0.0 | 0.00 | 0.00 | 0.00 | 32 | 1016.1 |
| 20260507113532 | 15 | 247 | 0.0 | 0.0 | 0.00 | 0.00 | 0.00 | 32 | 1016.2 |
| 20260507113030 | 16 | 243 | 0.0 | 0.0 | 0.00 | 0.00 | 0.00 | 31 | 1016.1 |
| 20260507112527 | 16 | 248 | 0.0 | 0.0 | 0.00 | 0.00 | 0.00 | 31 | 1016.4 |
| 20260507112024 | 15 | 250 | 0.0 | 0.0 | 0.00 | 0.00 | 0.00 | 31 | 1016.3 |
| 20260507111521 | 15 | 255 | 0.0 | 0.0 | 0.00 | 0.00 | 0.00 | 32 | 1016.3 |
| 20260507111017 | 16 | 245 | 0.0 | 0.0 | 0.00 | 0.00 | 0.00 | 31 | 1016.4 |
| 20260507110514 | 16 | 248 | 0.0 | 0.0 | 0.00 | 0.00 | 0.00 | 31 | 1016.3 |
| 20260507110010 | 16 | 246 | 0.0 | 0.0 | 0.00 | 0.00 | 0.00 | 30 | 1016.5 |
| 20260507105507 | 16 | 247 | 0.0 | 0.0 | 0.00 | 0.00 | 0.00 | 30 | 1016.3 |
| 20260507105004 | 17 | 242 | 0.0 | 0.0 | 0.00 | 0.00 | 0.00 | 29 | 1016.6 |
| 20260507104501 | 18 | 243 | 1.6 | 1.6 | 0.00 | 0.00 | 0.00 | 28 | 1016.5 |
| 20260507103956 | 18 | 5 | 3.2 | 3.2 | 0.00 | 0.00 | 0.00 | 27 | 1016.4 |
| 20260507103453 | 17 | 246 | 1.6 | 3.2 | 0.00 | 0.00 | 0.00 | 28 | 1016.5 |
| 20260507102949 | 17 | 64 | 1.6 | 3.2 | 0.00 | 0.00 | 0.00 | 29 | 1016.6 |
| 20260507102447 | 17 | 263 | 0.0 | 1.6 | 0.00 | 0.00 | 0.00 | 29 | 1016.4 |
| 20260507101943 | 17 | 339 | 3.2 | 4.8 | 0.00 | 0.00 | 0.00 | 29 | 1016.5 |
| 20260507101438 | 16 | 335 | 3.2 | 3.2 | 0.00 | 0.00 | 0.00 | 29 | 1016.4 |
| 20260507100935 | 16 | 21 | 3.2 | 3.2 | 0.00 | 0.00 | 0.00 | 29 | 1016.6 |
| 20260507100432 | 17 | 275 | 0.0 | 1.6 | 0.00 | 0.00 | 0.00 | 29 | 1016.5 |
| 20260507095930 | 16 | 335 | 1.6 | 1.6 | 0.00 | 0.00 | 0.00 | 29 | 1016.6 |
| 20260507095428 | 16 | 0 | 1.6 | 1.6 | 0.00 | 0.00 | 0.00 | 29 | 1016.4 |
| 20260507094925 | 17 | 295 | 1.6 | 1.6 | 0.00 | 0.00 | 0.00 | 29 | 1016.5 |
| 20260507094421 | 16 | 35 | 1.6 | 1.6 | 0.00 | 0.00 | 0.00 | 29 | 1016.6 |
| 20260507093918 | 16 | 247 | 0.0 | 0.0 | 0.00 | 0.00 | 0.00 | 29 | 1016.5 |
| 20260507093416 | 16 | 281 | 0.0 | 1.6 | 0.00 | 0.00 | 0.00 | 29 | 1016.5 |
| 20260507092914 | 16 | 295 | 1.6 | 3.2 | 0.00 | 0.00 | 0.00 | 29 | 1016.6 |
| 20260507092409 | 16 | 283 | 1.6 | 1.6 | 0.00 | 0.00 | 0.00 | 29 | 1016.5 |
| 20260507091907 | 16 | 249 | 0.0 | 0.0 | 0.00 | 0.00 | 0.00 | 28 | 1016.5 |
| 20260507091403 | 16 | 233 | 0.0 | 0.0 | 0.00 | 0.00 | 0.00 | 29 | 1016.7 |
| 20260507090858 | 17 | 245 | 0.0 | 0.0 | 0.00 | 0.00 | 0.00 | 28 | 1016.6 |
| 20260507090355 | 17 | 246 | 0.0 | 0.0 | 0.00 | 0.00 | 0.00 | 28 | 1016.8 |
| 20260507085852 | 17 | 246 | 0.0 | 0.0 | 0.00 | 0.00 | 0.00 | 28 | 1016.7 |
| 20260507085349 | 16 | 247 | 0.0 | 0.0 | 0.00 | 0.00 | 0.00 | 28 | 1016.9 |
| 20260507084846 | 16 | 243 | 0.0 | 0.0 | 0.00 | 0.00 | 0.00 | 29 | 1016.6 |
| 20260507084343 | 16 | 245 | 0.0 | 0.0 | 0.00 | 0.00 | 0.00 | 28 | 1016.7 |
| 20260507083840 | 16 | 243 | 0.0 | 0.0 | 0.00 | 0.00 | 0.00 | 28 | 1017.0 |
| 20260507083336 | 17 | 243 | 0.0 | 0.0 | 0.00 | 0.00 | 0.00 | 28 | 1016.7 |
| 20260507082832 | 17 | 242 | 0.0 | 0.0 | 0.00 | 0.00 | 0.00 | 27 | 1017.2 |
| 20260507082328 | 17 | 248 | 0.0 | 0.0 | 0.00 | 0.00 | 0.00 | 27 | 1017.2 |
| 20260507081826 | 17 | 247 | 0.0 | 0.0 | 0.00 | 0.00 | 0.00 | 27 | 1016.7 |
| 20260507081321 | 17 | 252 | 1.6 | 1.6 | 0.00 | 0.00 | 0.00 | 27 | 1016.7 |
| 20260507080818 | 17 | 248 | 0.0 | 0.0 | 0.00 | 0.00 | 0.00 | 27 | 1017.0 |
| 20260507080315 | 17 | 248 | 1.6 | 1.6 | 0.00 | 0.00 | 0.00 | 26 | 1016.9 |
| 20260507075810 | 17 | 245 | 0.0 | 0.0 | 0.00 | 0.00 | 0.00 | 26 | 1017.0 |
| 20260507075307 | 18 | 283 | 1.6 | 1.6 | 0.00 | 0.00 | 0.00 | 26 | 1017.0 |
| 20260507074803 | 18 | 263 | 1.6 | 1.6 | 0.00 | 0.00 | 0.00 | 26 | 1016.6 |
| 20260507074301 | 18 | 247 | 0.0 | 0.0 | 0.00 | 0.00 | 0.00 | 25 | 1016.7 |
| 20260507073758 | 19 | 287 | 1.6 | 1.6 | 0.00 | 0.00 | 0.00 | 25 | 1016.8 |
| 20260507073254 | 19 | 249 | 0.0 | 0.0 | 0.00 | 0.00 | 0.00 | 25 | 1016.8 |
| 20260507072752 | 19 | 253 | 0.0 | 0.0 | 0.00 | 0.00 | 0.00 | 25 | 1017.1 |
| 20260507072249 | 19 | 245 | 0.0 | 0.0 | 0.00 | 0.00 | 0.00 | 25 | 1017.0 |
| 20260507071746 | 19 | 287 | 1.6 | 3.2 | 0.00 | 0.00 | 0.00 | 25 | 1017.0 |
| 20260507071242 | 19 | 260 | 1.6 | 3.2 | 0.00 | 0.00 | 0.00 | 25 | 1016.9 |
| 20260507070739 | 19 | 290 | 1.6 | 1.6 | 0.00 | 0.00 | 0.00 | 25 | 1016.8 |
| 20260507070236 | 19 | 244 | 0.0 | 1.6 | 0.00 | 0.00 | 0.00 | 25 | 1016.9 |
| 20260507065733 | 19 | 258 | 0.0 | 0.0 | 0.00 | 0.00 | 0.00 | 25 | 1016.9 |
| 20260507065230 | 20 | 298 | 3.2 | 3.2 | 0.00 | 0.00 | 0.00 | 24 | 1017.1 |
| 20260507064727 | 20 | 246 | 0.0 | 0.0 | 0.00 | 0.00 | 0.00 | 24 | 1016.8 |
| 20260507064226 | 20 | 268 | 1.6 | 3.2 | 0.00 | 0.00 | 0.00 | 24 | 1016.9 |
| 20260507063723 | 19 | 312 | 1.6 | 3.2 | 0.00 | 0.00 | 0.00 | 24 | 1016.9 |
| 20260507063220 | 19 | 280 | 1.6 | 1.6 | 0.00 | 0.00 | 0.00 | 24 | 1016.8 |
| 20260507062717 | 19 | 254 | 1.6 | 3.2 | 0.00 | 0.00 | 0.00 | 24 | 1016.9 |
| 20260507062214 | 19 | 259 | 0.0 | 0.0 | 0.00 | 0.00 | 0.00 | 24 | 1016.9 |
| 20260507061712 | 20 | 245 | 0.0 | 0.0 | 0.00 | 0.00 | 0.00 | 24 | 1016.7 |
| 20260507061209 | 20 | 248 | 0.0 | 0.0 | 0.00 | 0.00 | 0.00 | 24 | 1016.8 |
| 20260507060708 | 20 | 247 | 0.0 | 0.0 | 0.00 | 0.00 | 0.00 | 24 | 1017.0 |
| 20260507060203 | 20 | 269 | 0.0 | 0.0 | 0.00 | 0.00 | 0.00 | 24 | 1016.6 |
| 20260507055700 | 20 | 275 | 0.0 | 0.0 | 0.00 | 0.00 | 0.00 | 24 | 1017.0 |
| 20260507055155 | 20 | 253 | 0.0 | 0.0 | 0.00 | 0.00 | 0.00 | 24 | 1016.8 |
| 20260507054652 | 20 | 250 | 0.0 | 0.0 | 0.00 | 0.00 | 0.00 | 24 | 1016.7 |
| 20260507054149 | 20 | 311 | 1.6 | 3.2 | 0.00 | 0.00 | 0.00 | 23 | 1016.9 |
| 20260507053647 | 20 | 250 | 0.0 | 0.0 | 0.00 | 0.00 | 0.00 | 23 | 1016.8 |
| 20260507053144 | 20 | 255 | 0.0 | 0.0 | 0.00 | 0.00 | 0.00 | 23 | 1016.9 |
| 20260507052643 | 21 | 247 | 0.0 | 0.0 | 0.00 | 0.00 | 0.00 | 23 | 1016.7 |
| 20260507052138 | 20 | 254 | 0.0 | 0.0 | 0.00 | 0.00 | 0.00 | 23 | 1016.9 |
| 20260507051636 | 20 | 248 | 0.0 | 0.0 | 0.00 | 0.00 | 0.00 | 23 | 1016.8 |
| 20260507051133 | 21 | 245 | 0.0 | 1.6 | 0.00 | 0.00 | 0.00 | 23 | 1016.8 |
| 20260507050630 | 21 | 264 | 1.6 | 1.6 | 0.00 | 0.00 | 0.00 | 23 | 1016.9 |
| 20260507050126 | 21 | 260 | 0.0 | 0.0 | 0.00 | 0.00 | 0.00 | 23 | 1016.6 |
| 20260507045623 | 21 | 245 | 0.0 | 0.0 | 0.00 | 0.00 | 0.00 | 23 | 1016.7 |
| 20260507045120 | 21 | 248 | 0.0 | 0.0 | 0.00 | 0.00 | 0.00 | 23 | 1016.6 |
| 20260507044616 | 21 | 246 | 0.0 | 0.0 | 0.00 | 0.00 | 0.00 | 23 | 1016.6 |
| 20260507044108 | 21 | 254 | 0.0 | 0.0 | 0.00 | 0.00 | 0.00 | 23 | 1016.7 |
| 20260507043604 | 21 | 247 | 0.0 | 0.0 | 0.00 | 0.00 | 0.00 | 23 | 1016.7 |
| 20260507043101 | 21 | 244 | 0.0 | 0.0 | 0.00 | 0.00 | 0.00 | 23 | 1016.5 |
| 20260507042557 | 21 | 245 | 0.0 | 0.0 | 0.00 | 0.00 | 0.00 | 24 | 1016.3 |
| 20260507042052 | 20 | 244 | 0.0 | 0.0 | 0.00 | 0.00 | 0.00 | 24 | 1016.2 |
| 20260507041550 | 20 | 245 | 0.0 | 0.0 | 0.00 | 0.00 | 0.00 | 24 | 1016.4 |
| 20260507041047 | 21 | 244 | 0.0 | 0.0 | 0.00 | 0.00 | 0.00 | 24 | 1016.2 |
| 20260507040543 | 21 | 244 | 0.0 | 0.0 | 0.00 | 0.00 | 0.00 | 24 | 1016.2 |
| 20260507040039 | 21 | 243 | 0.0 | 0.0 | 0.00 | 0.00 | 0.00 | 24 | 1016.0 |
| 20260507035535 | 21 | 242 | 0.0 | 0.0 | 0.00 | 0.00 | 0.00 | 23 | 1016.1 |
| 20260507035032 | 22 | 241 | 0.0 | 0.0 | 0.00 | 0.00 | 0.00 | 22 | 1016.0 |
| 20260507034529 | 22 | 241 | 0.0 | 0.0 | 0.00 | 0.00 | 0.00 | 22 | 1015.9 |
| 20260507034027 | 22 | 241 | 0.0 | 0.0 | 0.00 | 0.00 | 0.00 | 22 | 1015.7 |
| 20260507033524 | 22 | 242 | 0.0 | 0.0 | 0.00 | 0.00 | 0.00 | 21 | 1015.7 |
| 20260507033022 | 23 | 244 | 0.0 | 0.0 | 0.00 | 0.00 | 0.00 | 21 | 1015.7 |
| 20260507032518 | 23 | 241 | 0.0 | 0.0 | 0.00 | 0.00 | 0.00 | 21 | 1015.7 |
| 20260507032015 | 23 | 242 | 0.0 | 0.0 | 0.00 | 0.00 | 0.00 | 21 | 1015.6 |
| 20260507031511 | 23 | 243 | 0.0 | 0.0 | 0.00 | 0.00 | 0.00 | 21 | 1015.4 |
| 20260507031009 | 23 | 239 | 0.0 | 0.0 | 0.00 | 0.00 | 0.00 | 21 | 1015.4 |
| 20260507030505 | 24 | 240 | 0.0 | 0.0 | 0.00 | 0.00 | 0.00 | 20 | 1015.1 |
| 20260507030003 | 24 | 242 | 0.0 | 0.0 | 0.00 | 0.00 | 0.00 | 20 | 1015.3 |
| 20260507025459 | 24 | 240 | 0.0 | 0.0 | 0.00 | 0.00 | 0.00 | 20 | 1015.0 |
| 20260507024957 | 24 | 232 | 0.0 | 0.0 | 0.00 | 0.00 | 0.00 | 20 | 1015.4 |
| 20260507024454 | 25 | 239 | 0.0 | 0.0 | 0.00 | 0.00 | 0.00 | 20 | 1014.9 |
| 20260507023950 | 25 | 238 | 0.0 | 0.0 | 0.00 | 0.00 | 0.00 | 20 | 1015.1 |
| 20260507023447 | 25 | 217 | 0.0 | 0.0 | 0.00 | 0.00 | 0.00 | 19 | 1015.0 |
| 20260507022944 | 25 | 240 | 0.0 | 0.0 | 0.00 | 0.00 | 0.00 | 19 | 1015.1 |
| 20260507022442 | 25 | 237 | 0.0 | 0.0 | 0.00 | 0.00 | 0.00 | 19 | 1015.0 |
| 20260507021937 | 25 | 237 | 0.0 | 0.0 | 0.00 | 0.00 | 0.00 | 19 | 1015.1 |
| 20260507021432 | 25 | 237 | 0.0 | 1.6 | 0.00 | 0.00 | 0.00 | 19 | 1015.0 |
| 20260507020930 | 26 | 240 | 0.0 | 1.6 | 0.00 | 0.00 | 0.00 | 19 | 1014.7 |
| 20260507020426 | 26 | 237 | 0.0 | 0.0 | 0.00 | 0.00 | 0.00 | 19 | 1014.9 |
| 20260507015924 | 26 | 269 | 0.0 | 1.6 | 0.00 | 0.00 | 0.00 | 19 | 1014.7 |
| 20260507015422 | 26 | 238 | 0.0 | 1.6 | 0.00 | 0.00 | 0.00 | 18 | 1014.8 |
| 20260507014918 | 26 | 242 | 0.0 | 0.0 | 0.00 | 0.00 | 0.00 | 18 | 1014.9 |
| 20260507014414 | 26 | 234 | 1.6 | 1.6 | 0.00 | 0.00 | 0.00 | 18 | 1014.7 |
| 20260507013910 | 27 | 230 | 1.6 | 1.6 | 0.00 | 0.00 | 0.00 | 18 | 1014.7 |
| 20260507013408 | 27 | 185 | 3.2 | 4.8 | 0.00 | 0.00 | 0.00 | 18 | 1014.5 |
| 20260507012906 | 27 | 239 | 1.6 | 1.6 | 0.00 | 0.00 | 0.00 | 18 | 1014.7 |
| 20260507012401 | 27 | 219 | 1.6 | 1.6 | 0.00 | 0.00 | 0.00 | 18 | 1014.6 |
| 20260507011853 | 27 | 206 | 0.0 | 1.6 | 0.00 | 0.00 | 0.00 | 17 | 1014.5 |
| 20260507011349 | 27 | 231 | 1.6 | 3.2 | 0.00 | 0.00 | 0.00 | 17 | 1014.5 |
| 20260507010844 | 27 | 187 | 4.8 | 8.0 | 0.00 | 0.00 | 0.00 | 17 | 1014.6 |
| 20260507010340 | 28 | 242 | 1.6 | 3.2 | 0.00 | 0.00 | 0.00 | 17 | 1014.4 |
| 20260507005837 | 28 | 245 | 3.2 | 4.8 | 0.00 | 0.00 | 0.00 | 17 | 1014.5 |
| 20260507005334 | 28 | 253 | 0.0 | 1.6 | 0.00 | 0.00 | 0.00 | 17 | 1014.7 |
| 20260507004831 | 28 | 246 | 0.0 | 0.0 | 0.00 | 0.00 | 0.00 | 17 | 1014.4 |
| 20260507004328 | 28 | 246 | 0.0 | 0.0 | 0.00 | 0.00 | 0.00 | 17 | 1014.5 |
| 20260507003825 | 28 | 245 | 0.0 | 0.0 | 0.00 | 0.00 | 0.00 | 17 | 1014.5 |
| 20260507003321 | 28 | 234 | 1.6 | 3.2 | 0.00 | 0.00 | 0.00 | 17 | 1014.5 |
| 20260507002815 | 28 | 226 | 1.6 | 1.6 | 0.00 | 0.00 | 0.00 | 17 | 1014.4 |
| 20260507002311 | 28 | 211 | 4.8 | 4.8 | 0.00 | 0.00 | 0.00 | 17 | 1014.6 |
| 20260507001803 | 28 | 252 | 0.0 | 1.6 | 0.00 | 0.00 | 0.00 | 17 | 1014.4 |
| 20260507001301 | 28 | 214 | 3.2 | 3.2 | 0.00 | 0.00 | 0.00 | 17 | 1014.4 |
| 20260507000756 | 28 | 204 | 4.8 | 4.8 | 0.00 | 0.00 | 0.00 | 17 | 1014.6 |
| 20260507000252 | 28 | 230 | 1.6 | 1.6 | 0.00 | 0.00 | 0.00 | 18 | 1014.5 |
| 20260506235749 | 29 | 224 | 0.0 | 1.6 | 0.00 | 0.00 | 0.00 | 17 | 1014.7 |
| 20260506235244 | 28 | 243 | 0.0 | 0.0 | 0.00 | 0.00 | 0.00 | 17 | 1014.6 |
| 20260506234742 | 28 | 234 | 1.6 | 1.6 | 0.00 | 0.00 | 0.00 | 17 | 1014.7 |
| 20260506234239 | 27 | 184 | 4.8 | 4.8 | 0.00 | 0.00 | 0.00 | 18 | 1014.6 |
| 20260506233737 | 29 | 219 | 3.2 | 4.8 | 0.00 | 0.00 | 0.00 | 17 | 1014.8 |
| 20260506233233 | 28 | 225 | 1.6 | 1.6 | 0.00 | 0.00 | 0.00 | 17 | 1014.7 |
| 20260506232730 | 28 | 232 | 1.6 | 3.2 | 0.00 | 0.00 | 0.00 | 17 | 1014.6 |
| 20260506232224 | 27 | 163 | 3.2 | 3.2 | 0.00 | 0.00 | 0.00 | 18 | 1014.6 |
| 20260506231722 | 27 | 161 | 4.8 | 4.8 | 0.00 | 0.00 | 0.00 | 17 | 1014.7 |
| 20260506231220 | 27 | 170 | 4.8 | 8.0 | 0.00 | 0.00 | 0.00 | 18 | 1014.9 |
| 20260506230716 | 28 | 220 | 1.6 | 3.2 | 0.00 | 0.00 | 0.00 | 17 | 1014.9 |
| 20260506230213 | 28 | 169 | 4.8 | 4.8 | 0.00 | 0.00 | 0.00 | 17 | 1015.0 |
| 20260506225710 | 29 | 242 | 1.6 | 3.2 | 0.00 | 0.00 | 0.00 | 17 | 1015.3 |
| 20260506225207 | 30 | 237 | 4.8 | 8.0 | 0.00 | 0.00 | 0.00 | 17 | 1014.8 |
| 20260506224703 | 28 | 260 | 0.0 | 0.0 | 0.00 | 0.00 | 0.00 | 17 | 1015.1 |
| 20260506224201 | 29 | 219 | 0.0 | 0.0 | 0.00 | 0.00 | 0.00 | 17 | 1015.3 |
| 20260506223657 | 28 | 244 | 1.6 | 3.2 | 0.00 | 0.00 | 0.00 | 17 | 1015.0 |
| 20260506223152 | 28 | 255 | 3.2 | 3.2 | 0.00 | 0.00 | 0.00 | 17 | 1015.4 |
| 20260506222650 | 27 | 212 | 4.8 | 8.0 | 0.00 | 0.00 | 0.00 | 18 | 1015.4 |
| 20260506222145 | 27 | 227 | 3.2 | 3.2 | 0.00 | 0.00 | 0.00 | 18 | 1015.6 |
| 20260506221644 | 28 | 211 | 6.4 | 9.7 | 0.00 | 0.00 | 0.00 | 17 | 1015.5 |
| 20260506221142 | 28 | 250 | 1.6 | 1.6 | 0.00 | 0.00 | 0.00 | 17 | 1015.6 |
| 20260506220638 | 28 | 180 | 8.0 | 11.3 | 0.00 | 0.00 | 0.00 | 17 | 1015.6 |
| 20260506220133 | 28 | 228 | 1.6 | 1.6 | 0.00 | 0.00 | 0.00 | 17 | 1015.8 |
| 20260506215630 | 28 | 256 | 1.6 | 3.2 | 0.00 | 0.00 | 0.00 | 18 | 1015.7 |
| 20260506215125 | 27 | 234 | 4.8 | 4.8 | 0.00 | 0.00 | 0.00 | 18 | 1015.5 |
| 20260506214622 | 28 | 227 | 4.8 | 8.0 | 0.00 | 0.00 | 0.00 | 18 | 1015.7 |
| 20260506214120 | 28 | 190 | 4.8 | 4.8 | 0.00 | 0.00 | 0.00 | 18 | 1015.8 |
| 20260506213618 | 28 | 217 | 3.2 | 3.2 | 0.00 | 0.00 | 0.00 | 17 | 1016.0 |
| 20260506213115 | 28 | 233 | 1.6 | 3.2 | 0.00 | 0.00 | 0.00 | 18 | 1016.1 |
| 20260506212612 | 28 | 241 | 1.6 | 1.6 | 0.00 | 0.00 | 0.00 | 18 | 1016.0 |
| 20260506212107 | 28 | 240 | 8.0 | 12.9 | 0.00 | 0.00 | 0.00 | 18 | 1016.3 |
| 20260506211603 | 28 | 250 | 1.6 | 1.6 | 0.00 | 0.00 | 0.00 | 18 | 1016.4 |
| 20260506211100 | 27 | 193 | 1.6 | 3.2 | 0.00 | 0.00 | 0.00 | 18 | 1016.6 |
| 20260506210556 | 28 | 218 | 3.2 | 3.2 | 0.00 | 0.00 | 0.00 | 18 | 1016.4 |
| 20260506210053 | 28 | 232 | 4.8 | 4.8 | 0.00 | 0.00 | 0.00 | 18 | 1016.7 |
| 20260506205550 | 27 | 287 | 1.6 | 3.2 | 0.00 | 0.00 | 0.00 | 18 | 1016.7 |
| 20260506205045 | 28 | 249 | 1.6 | 1.6 | 0.00 | 0.00 | 0.00 | 17 | 1016.8 |
| 20260506204543 | 28 | 254 | 1.6 | 1.6 | 0.00 | 0.00 | 0.00 | 18 | 1016.9 |
| 20260506204040 | 28 | 213 | 1.6 | 3.2 | 0.00 | 0.00 | 0.00 | 18 | 1016.7 |
| 20260506203539 | 28 | 235 | 0.0 | 1.6 | 0.00 | 0.00 | 0.00 | 18 | 1016.9 |
| 20260506203035 | 27 | 258 | 1.6 | 3.2 | 0.00 | 0.00 | 0.00 | 18 | 1016.9 |
| 20260506202532 | 27 | 212 | 1.6 | 1.6 | 0.00 | 0.00 | 0.00 | 19 | 1017.0 |
| 20260506202028 | 26 | 246 | 1.6 | 3.2 | 0.00 | 0.00 | 0.00 | 19 | 1017.0 |
| 20260506201526 | 27 | 194 | 8.0 | 9.7 | 0.00 | 0.00 | 0.00 | 19 | 1017.4 |
| 20260506201022 | 27 | 229 | 1.6 | 3.2 | 0.00 | 0.00 | 0.00 | 19 | 1017.1 |
| 20260506200519 | 27 | 214 | 1.6 | 3.2 | 0.00 | 0.00 | 0.00 | 20 | 1017.2 |
| 20260506200016 | 27 | 249 | 0.0 | 1.6 | 0.00 | 0.00 | 0.00 | 19 | 1017.4 |
| 20260506195513 | 27 | 236 | 1.6 | 4.8 | 0.00 | 0.00 | 0.00 | 19 | 1017.4 |
| 20260506195009 | 27 | 242 | 3.2 | 3.2 | 0.00 | 0.00 | 0.00 | 19 | 1017.4 |
| 20260506194507 | 27 | 230 | 0.0 | 0.0 | 0.00 | 0.00 | 0.00 | 19 | 1017.5 |
| 20260506194003 | 27 | 254 | 0.0 | 0.0 | 0.00 | 0.00 | 0.00 | 19 | 1017.6 |
| 20260506193500 | 27 | 248 | 0.0 | 1.6 | 0.00 | 0.00 | 0.00 | 19 | 1017.6 |
| 20260506192956 | 27 | 264 | 1.6 | 1.6 | 0.00 | 0.00 | 0.00 | 19 | 1017.7 |
| 20260506192454 | 27 | 259 | 1.6 | 1.6 | 0.00 | 0.00 | 0.00 | 19 | 1017.7 |
| 20260506191950 | 27 | 256 | 1.6 | 3.2 | 0.00 | 0.00 | 0.00 | 19 | 1017.6 |
| 20260506191447 | 26 | 222 | 3.2 | 4.8 | 0.00 | 0.00 | 0.00 | 20 | 1017.7 |
| 20260506190943 | 26 | 255 | 0.0 | 0.0 | 0.00 | 0.00 | 0.00 | 20 | 1017.7 |
| 20260506190440 | 25 | 230 | 0.0 | 0.0 | 0.00 | 0.00 | 0.00 | 21 | 1017.9 |
| 20260506185937 | 26 | 292 | 6.4 | 8.0 | 0.00 | 0.00 | 0.00 | 20 | 1017.9 |
| 20260506185434 | 26 | 244 | 1.6 | 3.2 | 0.00 | 0.00 | 0.00 | 20 | 1017.8 |
| 20260506184931 | 26 | 210 | 1.6 | 3.2 | 0.00 | 0.00 | 0.00 | 20 | 1017.8 |
| 20260506184427 | 25 | 184 | 4.8 | 4.8 | 0.00 | 0.00 | 0.00 | 21 | 1017.9 |
| 20260506183925 | 26 | 254 | 0.0 | 0.0 | 0.00 | 0.00 | 0.00 | 21 | 1018.1 |
| 20260506183420 | 26 | 278 | 3.2 | 4.8 | 0.00 | 0.00 | 0.00 | 20 | 1018.3 |
| 20260506182918 | 25 | 240 | 0.0 | 0.0 | 0.00 | 0.00 | 0.00 | 21 | 1018.3 |
| 20260506182415 | 26 | 246 | 1.6 | 1.6 | 0.00 | 0.00 | 0.00 | 20 | 1018.3 |
| 20260506181913 | 25 | 356 | 3.2 | 3.2 | 0.00 | 0.00 | 0.00 | 21 | 1018.2 |
| 20260506181410 | 26 | 301 | 6.4 | 9.7 | 0.00 | 0.00 | 0.00 | 20 | 1018.3 |
| 20260506180907 | 25 | 242 | 0.0 | 1.6 | 0.00 | 0.00 | 0.00 | 21 | 1018.3 |
| 20260506180403 | 25 | 212 | 0.0 | 0.0 | 0.00 | 0.00 | 0.00 | 22 | 1018.4 |
| 20260506175900 | 23 | 200 | 1.6 | 1.6 | 0.00 | 0.00 | 0.00 | 23 | 1018.5 |
| 20260506175356 | 25 | 215 | 3.2 | 3.2 | 0.00 | 0.00 | 0.00 | 22 | 1018.6 |
| 20260506174853 | 25 | 221 | 0.0 | 0.0 | 0.00 | 0.00 | 0.00 | 21 | 1018.5 |
| 20260506174351 | 24 | 251 | 1.6 | 1.6 | 0.00 | 0.00 | 0.00 | 22 | 1018.7 |
| 20260506173848 | 23 | 227 | 0.0 | 0.0 | 0.00 | 0.00 | 0.00 | 24 | 1018.7 |
| 20260506173344 | 25 | 216 | 1.6 | 3.2 | 0.00 | 0.00 | 0.00 | 23 | 1018.3 |
| 20260506172842 | 25 | 250 | 0.0 | 0.0 | 0.00 | 0.00 | 0.00 | 23 | 1018.6 |
| 20260506172338 | 25 | 237 | 0.0 | 0.0 | 0.00 | 0.00 | 0.00 | 24 | 1018.4 |
| 20260506171836 | 24 | 256 | 0.0 | 0.0 | 0.00 | 0.00 | 0.00 | 24 | 1018.7 |
| 20260506171333 | 24 | 191 | 1.6 | 3.2 | 0.00 | 0.00 | 0.00 | 24 | 1018.3 |
| 20260506170831 | 23 | 230 | 0.0 | 1.6 | 0.00 | 0.00 | 0.00 | 25 | 1018.3 |
| 20260506170326 | 24 | 221 | 0.0 | 0.0 | 0.00 | 0.00 | 0.00 | 25 | 1018.4 |
| 20260506165825 | 24 | 237 | 0.0 | 0.0 | 0.00 | 0.00 | 0.00 | 26 | 1018.5 |
| 20260506165318 | 23 | 241 | 0.0 | 1.6 | 0.00 | 0.00 | 0.00 | 26 | 1018.3 |
| 20260506164814 | 23 | 226 | 0.0 | 0.0 | 0.00 | 0.00 | 0.00 | 26 | 1018.5 |